createdAt,value
2023-02-13T00:03:11.305Z,100.00
2023-02-13T00:08:33.378Z,100.00
2023-02-13T00:13:55.332Z,100.00
2023-02-13T00:19:17.295Z,100.00
2023-02-13T00:24:39.158Z,100.00
2023-02-13T00:30:01.034Z,100.00
2023-02-13T00:35:23.026Z,100.00
2023-02-13T00:40:44.905Z,100.00
2023-02-13T00:46:06.990Z,100.00
2023-02-13T00:51:28.845Z,100.00
2023-02-13T00:56:50.691Z,100.00
2023-02-13T01:02:12.557Z,100.00
2023-02-13T01:07:34.448Z,100.00
2023-02-13T01:12:56.321Z,100.00
2023-02-13T01:18:20.183Z,100.00
2023-02-13T01:23:42.058Z,100.00
2023-02-13T01:29:04.039Z,100.00
2023-02-13T01:34:25.944Z,100.00
2023-02-13T01:39:48.012Z,100.00
2023-02-13T01:45:24.316Z,100.00
2023-02-13T01:51:00.879Z,100.00
2023-02-13T01:56:49.693Z,100.00
2023-02-13T02:02:11.724Z,100.00
2023-02-13T02:07:34.761Z,100.00
2023-02-13T02:13:18.175Z,100.00
2023-02-13T02:18:40.151Z,100.00
2023-02-13T02:24:39.702Z,100.00
2023-02-13T02:30:20.397Z,100.00
2023-02-13T02:36:04.271Z,100.00
2023-02-13T02:41:51.361Z,100.00
2023-02-13T02:47:59.498Z,100.00
2023-02-13T02:53:44.222Z,100.00
2023-02-13T02:59:15.828Z,100.00
2023-02-13T03:04:44.294Z,100.00
2023-02-13T03:10:11.572Z,100.00
2023-02-13T03:15:36.167Z,100.00
2023-02-13T03:21:13.279Z,100.00
2023-02-13T03:26:42.597Z,100.00
2023-02-13T03:32:33.636Z,100.00
2023-02-13T03:38:04.437Z,100.00
2023-02-13T03:43:29.260Z,100.00
2023-02-13T03:48:51.526Z,100.00
2023-02-13T03:54:33.030Z,100.00
2023-02-13T03:59:57.312Z,100.00
2023-02-13T04:05:24.932Z,100.00
2023-02-13T04:10:58.904Z,100.00
2023-02-13T04:16:29.327Z,100.00
2023-02-13T04:21:57.271Z,100.00
2023-02-13T04:27:19.145Z,100.00
2023-02-13T04:32:41.010Z,100.00
2023-02-13T04:38:03.232Z,100.00
2023-02-13T04:43:25.173Z,100.00
2023-02-13T04:48:47.109Z,100.00
2023-02-13T04:54:09.001Z,100.00
2023-02-13T04:59:30.902Z,100.00
2023-02-13T05:04:53.301Z,100.00
2023-02-13T05:10:15.245Z,100.00
2023-02-13T05:15:37.237Z,100.00
2023-02-13T05:20:59.461Z,100.00
2023-02-13T05:26:21.319Z,100.00
2023-02-13T05:31:43.278Z,100.00
2023-02-13T05:37:05.313Z,100.00
2023-02-13T05:42:27.152Z,100.00
2023-02-13T05:47:48.971Z,100.00
2023-02-13T05:53:10.803Z,100.00
2023-02-13T05:58:33.524Z,100.00
2023-02-13T06:03:57.175Z,100.00
2023-02-13T06:09:20.639Z,100.00
2023-02-13T06:14:42.528Z,100.00
2023-02-13T06:20:05.709Z,100.00
2023-02-13T06:25:27.614Z,100.00
2023-02-13T06:30:49.522Z,100.00
2023-02-13T06:36:11.380Z,100.00
2023-02-13T06:41:33.247Z,100.00
2023-02-13T06:46:55.190Z,100.00
2023-02-13T06:52:17.111Z,100.00
2023-02-13T06:57:39.112Z,100.00
2023-02-13T07:03:06.035Z,100.00
2023-02-13T07:08:28.005Z,100.00
2023-02-13T07:13:50.078Z,100.00
2023-02-13T07:19:11.912Z,100.00
2023-02-13T07:24:33.804Z,100.00
2023-02-13T07:29:57.034Z,100.00
2023-02-13T07:35:18.896Z,100.00
2023-02-13T07:40:40.756Z,97.11
2023-02-13T07:46:03.725Z,96.26
2023-02-13T07:51:25.567Z,92.04
2023-02-13T07:56:47.429Z,93.47
2023-02-13T08:02:13.916Z,93.89
2023-02-13T08:07:35.944Z,96.03
2023-02-13T08:12:58.116Z,96.81
2023-02-13T08:18:20.208Z,97.06
2023-02-13T08:23:42.118Z,97.14
2023-02-13T08:29:05.209Z,94.79
2023-02-13T08:34:27.143Z,94.68
2023-02-13T08:39:48.972Z,94.56
2023-02-13T08:45:11.080Z,93.34
2023-02-13T08:50:33.947Z,91.58
2023-02-13T08:55:58.529Z,88.25
2023-02-13T09:01:20.720Z,86.81
2023-02-13T09:06:42.673Z,86.20
2023-02-13T09:12:04.862Z,87.59
2023-02-13T09:17:26.769Z,89.24
2023-02-13T09:22:48.624Z,89.20
2023-02-13T09:28:10.537Z,89.41
2023-02-13T09:33:32.430Z,88.96
2023-02-13T09:38:56.059Z,88.34
2023-02-13T09:44:38.748Z,87.81
2023-02-13T09:50:13.638Z,86.77
2023-02-13T09:55:41.435Z,87.81
2023-02-13T10:01:05.718Z,88.38
2023-02-13T10:06:30.328Z,88.26
2023-02-13T10:12:12.943Z,86.68
2023-02-13T10:17:40.161Z,87.99
2023-02-13T10:23:30.652Z,86.14
2023-02-13T10:29:04.943Z,86.24
2023-02-13T10:34:31.674Z,87.08
2023-02-13T10:39:53.707Z,87.82
2023-02-13T10:46:03.241Z,87.61
2023-02-13T10:51:54.810Z,88.39
2023-02-13T10:57:33.377Z,89.49
2023-02-13T11:02:56.419Z,89.53
2023-02-13T11:08:22.760Z,90.37
2023-02-13T11:13:44.605Z,89.82
2023-02-13T11:19:06.794Z,88.40
2023-02-13T11:24:31.168Z,87.56
2023-02-13T11:29:57.454Z,86.81
2023-02-13T11:35:37.594Z,86.06
2023-02-13T11:41:12.217Z,87.25
2023-02-13T11:46:47.537Z,88.52
2023-02-13T11:52:35.149Z,88.85
2023-02-13T11:58:01.841Z,90.89
2023-02-13T12:03:31.916Z,89.07
2023-02-13T12:08:55.098Z,89.22
2023-02-13T12:14:21.360Z,89.17
2023-02-13T12:19:48.518Z,88.37
2023-02-13T12:25:31.476Z,86.45
2023-02-13T12:31:12.325Z,86.95
2023-02-13T12:36:59.560Z,86.17
2023-02-13T12:42:36.832Z,85.90
2023-02-13T12:48:14.768Z,86.00
2023-02-13T12:54:10.426Z,86.23
2023-02-13T12:59:34.863Z,87.66
2023-02-13T13:05:05.516Z,86.98
2023-02-13T13:10:39.382Z,87.23
2023-02-13T13:16:23.063Z,87.07
2023-02-13T13:21:49.371Z,84.84
2023-02-13T13:27:22.103Z,85.44
2023-02-13T13:32:45.964Z,85.53
2023-02-13T13:38:46.194Z,84.62
2023-02-13T13:44:29.612Z,85.09
2023-02-13T13:49:54.019Z,85.92
2023-02-13T13:55:47.583Z,84.26
2023-02-13T14:01:15.220Z,86.08
2023-02-13T14:06:45.844Z,86.39
2023-02-13T14:12:33.589Z,86.41
2023-02-13T14:17:56.101Z,88.92
2023-02-13T14:23:36.576Z,89.00
2023-02-13T14:29:02.776Z,89.80
2023-02-13T14:34:30.421Z,89.46
2023-02-13T14:40:14.066Z,90.36
2023-02-13T14:45:51.560Z,89.77
2023-02-13T14:51:21.868Z,90.12
2023-02-13T14:56:47.091Z,89.90
2023-02-13T15:02:25.739Z,90.04
2023-02-13T15:07:59.078Z,89.10
2023-02-13T15:13:33.993Z,88.76
2023-02-13T15:18:57.050Z,88.98
2023-02-13T15:24:21.720Z,89.42
2023-02-13T15:30:15.824Z,89.16
2023-02-13T15:35:37.774Z,90.22
2023-02-13T15:41:23.714Z,89.45
2023-02-13T15:46:48.324Z,89.40
2023-02-13T15:52:34.320Z,89.20
2023-02-13T15:57:59.176Z,89.55
2023-02-13T16:03:23.639Z,89.45
2023-02-13T16:08:59.457Z,88.34
2023-02-13T16:14:24.001Z,88.21
2023-02-13T16:19:51.891Z,88.47
2023-02-13T16:25:13.727Z,88.81
2023-02-13T16:31:14.241Z,87.96
2023-02-13T16:36:36.284Z,88.41
2023-02-13T16:41:59.744Z,88.32
2023-02-13T16:47:24.893Z,88.20
2023-02-13T16:52:46.752Z,87.56
2023-02-13T16:58:18.457Z,86.94
2023-02-13T17:03:40.404Z,86.85
2023-02-13T17:09:02.304Z,86.56
2023-02-13T17:14:24.138Z,86.36
2023-02-13T17:19:46.197Z,85.90
2023-02-13T17:25:32.789Z,85.10
2023-02-13T17:30:57.876Z,85.19
2023-02-13T17:36:19.893Z,84.55
2023-02-13T17:41:41.826Z,84.21
2023-02-13T17:47:03.766Z,84.00
2023-02-13T17:52:28.061Z,83.19
2023-02-13T17:57:51.154Z,83.03
2023-02-13T18:03:13.718Z,82.96
2023-02-13T18:08:35.576Z,82.58
2023-02-13T18:13:57.437Z,82.34
2023-02-13T18:19:19.486Z,82.15
2023-02-13T18:24:42.365Z,81.81
2023-02-13T18:30:04.973Z,81.58
2023-02-13T18:35:27.105Z,81.15
2023-02-13T18:40:48.985Z,81.29
2023-02-13T18:46:10.993Z,81.12
2023-02-13T18:51:33.217Z,80.97
2023-02-13T18:56:55.125Z,81.03
2023-02-13T19:02:16.998Z,80.51
2023-02-13T19:07:38.939Z,81.22
2023-02-13T19:13:00.768Z,80.85
2023-02-13T19:18:22.653Z,80.71
2023-02-13T19:23:44.513Z,80.97
2023-02-13T19:29:06.469Z,80.98
2023-02-13T19:34:28.372Z,81.10
2023-02-13T19:39:50.241Z,80.68
2023-02-13T19:45:12.220Z,81.28
2023-02-13T19:50:34.254Z,81.00
2023-02-13T19:56:00.237Z,80.65
2023-02-13T20:01:24.025Z,81.29
2023-02-13T20:06:45.968Z,81.15
2023-02-13T20:12:07.826Z,81.34
2023-02-13T20:17:29.735Z,80.94
2023-02-13T20:22:51.600Z,81.35
2023-02-13T20:28:13.483Z,81.62
2023-02-13T20:33:36.682Z,80.92
2023-02-13T20:39:01.708Z,81.37
2023-02-13T20:44:23.584Z,81.13
2023-02-13T20:49:45.646Z,81.21
2023-02-13T20:55:08.000Z,81.80
2023-02-13T21:00:29.866Z,81.40
2023-02-13T21:05:51.785Z,81.87
2023-02-13T21:11:13.656Z,81.97
2023-02-13T21:16:37.893Z,81.98
2023-02-13T21:21:59.849Z,82.50
2023-02-13T21:27:21.775Z,82.22
2023-02-13T21:32:43.642Z,82.23
2023-02-13T21:38:05.515Z,82.56
2023-02-13T21:43:27.493Z,82.67
2023-02-13T21:48:54.515Z,82.55
2023-02-13T21:54:16.435Z,83.16
2023-02-13T21:59:38.366Z,83.82
2023-02-13T22:05:00.252Z,84.15
2023-02-13T22:10:22.236Z,84.26
2023-02-13T22:15:44.161Z,83.95
2023-02-13T22:21:06.656Z,84.18
2023-02-13T22:26:32.921Z,84.37
2023-02-13T22:31:54.850Z,84.47
2023-02-13T22:37:16.825Z,84.03
2023-02-13T22:42:38.697Z,84.22
2023-02-13T22:48:00.714Z,84.29
2023-02-13T22:53:22.629Z,84.70
2023-02-13T22:58:44.539Z,85.50
2023-02-13T23:04:06.402Z,84.51
2023-02-13T23:09:28.315Z,84.55
2023-02-13T23:14:50.187Z,84.94
2023-02-13T23:20:12.789Z,85.96
2023-02-13T23:25:36.550Z,84.72
2023-02-13T23:30:59.081Z,85.29
2023-02-13T23:36:21.158Z,85.81
2023-02-13T23:41:43.020Z,86.01
2023-02-13T23:47:04.980Z,86.31
2023-02-13T23:52:27.044Z,85.75
2023-02-13T23:57:48.903Z,85.81
